Cape Haze, Florida
Current Conditions -  °F | °C
As of 9:53 PM on Monday 20 Oct 2014 (Local Time) from KPGD Reporting Station
Clear Clear  
Wind Chill: 76°   Ceiling: Unl
Heat Index: 76°   Visibility: 10mi
Dew Point: 67°   Wind: 3mph
Humidity: 74%   Direction: 350°N
Pressure: 29.98"   Gusts: NA
Location:  26.8889°N, 82.2745°W
Report Text: KPGD 210153Z AUTO 35003KT 10SM CLR 24/19 A2998 RMK AO2 SLP154 T02440194
Loading
Personal Weather Stations






























Interactive Weather Map
Tropical Storm Tracking
New forecast layout! Learn more

10-Day Weather Forecast

Advertisements
Track Severe Weather on mobile